sensor_id;sensor_type;location;lat;lon;timestamp;temperature;humidity
70051;SHT30;57391;51.306;22.680;2022-07-22T00:01:53;19.96;71.09
70051;SHT30;57391;51.306;22.680;2022-07-22T00:04:20;19.98;71.26
70051;SHT30;57391;51.306;22.680;2022-07-22T00:06:46;19.99;70.89
70051;SHT30;57391;51.306;22.680;2022-07-22T00:09:13;19.96;70.86
70051;SHT30;57391;51.306;22.680;2022-07-22T00:11:40;19.94;71.16
70051;SHT30;57391;51.306;22.680;2022-07-22T00:14:07;19.91;70.72
70051;SHT30;57391;51.306;22.680;2022-07-22T00:16:34;19.88;70.19
70051;SHT30;57391;51.306;22.680;2022-07-22T00:19:01;19.84;69.93
70051;SHT30;57391;51.306;22.680;2022-07-22T00:21:28;19.82;69.66
70051;SHT30;57391;51.306;22.680;2022-07-22T00:23:55;19.81;69.68
70051;SHT30;57391;51.306;22.680;2022-07-22T00:26:21;19.80;69.71
70051;SHT30;57391;51.306;22.680;2022-07-22T00:28:48;19.80;69.51
70051;SHT30;57391;51.306;22.680;2022-07-22T00:31:15;19.80;69.40
70051;SHT30;57391;51.306;22.680;2022-07-22T00:33:42;19.81;70.02
70051;SHT30;57391;51.306;22.680;2022-07-22T00:36:09;19.80;70.45
70051;SHT30;57391;51.306;22.680;2022-07-22T00:38:37;19.71;69.81
70051;SHT30;57391;51.306;22.680;2022-07-22T00:41:05;19.61;69.90
70051;SHT30;57391;51.306;22.680;2022-07-22T00:46:36;19.38;70.36
70051;SHT30;57391;51.306;22.680;2022-07-22T00:49:05;19.28;70.90
70051;SHT30;57391;51.306;22.680;2022-07-22T00:51:35;19.21;71.22
70051;SHT30;57391;51.306;22.680;2022-07-22T00:54:05;19.18;71.84
70051;SHT30;57391;51.306;22.680;2022-07-22T00:56:33;19.18;72.12
70051;SHT30;57391;51.306;22.680;2022-07-22T00:59:00;19.21;72.44
70051;SHT30;57391;51.306;22.680;2022-07-22T01:01:32;19.20;72.19
70051;SHT30;57391;51.306;22.680;2022-07-22T01:03:59;19.17;72.34
70051;SHT30;57391;51.306;22.680;2022-07-22T01:06:27;19.16;72.64
70051;SHT30;57391;51.306;22.680;2022-07-22T01:08:58;19.14;72.95
70051;SHT30;57391;51.306;22.680;2022-07-22T01:11:26;19.14;73.34
70051;SHT30;57391;51.306;22.680;2022-07-22T01:13:54;19.14;73.49
70051;SHT30;57391;51.306;22.680;2022-07-22T01:16:23;19.14;73.66
70051;SHT30;57391;51.306;22.680;2022-07-22T01:18:51;19.12;73.37
70051;SHT30;57391;51.306;22.680;2022-07-22T01:21:18;19.08;73.44
70051;SHT30;57391;51.306;22.680;2022-07-22T01:23:46;19.06;73.46
70051;SHT30;57391;51.306;22.680;2022-07-22T01:26:14;19.06;73.65
70051;SHT30;57391;51.306;22.680;2022-07-22T01:28:41;19.08;73.79
70051;SHT30;57391;51.306;22.680;2022-07-22T01:31:08;19.11;73.67
70051;SHT30;57391;51.306;22.680;2022-07-22T01:33:35;19.11;74.00
70051;SHT30;57391;51.306;22.680;2022-07-22T01:36:03;19.12;73.63
70051;SHT30;57391;51.306;22.680;2022-07-22T01:38:31;19.09;73.55
70051;SHT30;57391;51.306;22.680;2022-07-22T01:41:00;19.10;74.15
70051;SHT30;57391;51.306;22.680;2022-07-22T01:43:28;19.10;73.82
70051;SHT30;57391;51.306;22.680;2022-07-22T01:45:55;19.05;73.39
70051;SHT30;57391;51.306;22.680;2022-07-22T01:48:22;18.98;73.37
70051;SHT30;57391;51.306;22.680;2022-07-22T01:50:51;18.96;74.31
70051;SHT30;57391;51.306;22.680;2022-07-22T01:53:19;18.97;74.43
70051;SHT30;57391;51.306;22.680;2022-07-22T01:55:46;18.93;74.10
70051;SHT30;57391;51.306;22.680;2022-07-22T01:58:15;18.88;74.36
70051;SHT30;57391;51.306;22.680;2022-07-22T02:00:43;18.85;74.38
70051;SHT30;57391;51.306;22.680;2022-07-22T02:03:10;18.83;74.42
70051;SHT30;57391;51.306;22.680;2022-07-22T02:05:37;18.82;74.65
70051;SHT30;57391;51.306;22.680;2022-07-22T02:08:09;18.84;74.75
70051;SHT30;57391;51.306;22.680;2022-07-22T02:10:57;18.85;74.65
70051;SHT30;57391;51.306;22.680;2022-07-22T02:13:24;18.85;74.62
70051;SHT30;57391;51.306;22.680;2022-07-22T02:15:51;18.84;74.39
70051;SHT30;57391;51.306;22.680;2022-07-22T02:18:19;18.79;73.81
70051;SHT30;57391;51.306;22.680;2022-07-22T02:20:46;18.75;73.74
70051;SHT30;57391;51.306;22.680;2022-07-22T02:23:14;18.73;73.72
70051;SHT30;57391;51.306;22.680;2022-07-22T02:25:42;18.71;73.48
70051;SHT30;57391;51.306;22.680;2022-07-22T02:28:10;18.73;73.45
70051;SHT30;57391;51.306;22.680;2022-07-22T02:30:37;18.76;74.15
70051;SHT30;57391;51.306;22.680;2022-07-22T02:33:05;18.78;74.60
70051;SHT30;57391;51.306;22.680;2022-07-22T02:35:32;18.78;73.97
70051;SHT30;57391;51.306;22.680;2022-07-22T02:37:59;18.75;73.66
70051;SHT30;57391;51.306;22.680;2022-07-22T02:40:26;18.67;73.65
70051;SHT30;57391;51.306;22.680;2022-07-22T02:42:53;18.61;74.59
70051;SHT30;57391;51.306;22.680;2022-07-22T02:45:20;18.58;74.99
70051;SHT30;57391;51.306;22.680;2022-07-22T02:47:51;18.56;75.18
70051;SHT30;57391;51.306;22.680;2022-07-22T02:50:21;18.53;75.23
70051;SHT30;57391;51.306;22.680;2022-07-22T02:52:49;18.51;75.22
70051;SHT30;57391;51.306;22.680;2022-07-22T02:55:17;18.53;75.20
70051;SHT30;57391;51.306;22.680;2022-07-22T02:57:45;18.54;75.20
70051;SHT30;57391;51.306;22.680;2022-07-22T03:00:13;18.54;75.10
70051;SHT30;57391;51.306;22.680;2022-07-22T03:02:41;18.55;75.27
70051;SHT30;57391;51.306;22.680;2022-07-22T03:05:08;18.58;75.43
70051;SHT30;57391;51.306;22.680;2022-07-22T03:07:40;18.58;75.49
70051;SHT30;57391;51.306;22.680;2022-07-22T03:10:07;18.60;75.50
70051;SHT30;57391;51.306;22.680;2022-07-22T03:12:35;18.63;75.50
70051;SHT30;57391;51.306;22.680;2022-07-22T03:15:02;18.66;75.43
70051;SHT30;57391;51.306;22.680;2022-07-22T03:17:35;18.71;75.40
70051;SHT30;57391;51.306;22.680;2022-07-22T03:20:06;18.76;75.28
70051;SHT30;57391;51.306;22.680;2022-07-22T03:22:36;18.80;75.15
70051;SHT30;57391;51.306;22.680;2022-07-22T03:25:05;18.85;75.10
70051;SHT30;57391;51.306;22.680;2022-07-22T03:27:32;18.90;74.93
70051;SHT30;57391;51.306;22.680;2022-07-22T03:29:59;18.94;74.82
70051;SHT30;57391;51.306;22.680;2022-07-22T03:32:26;18.95;74.77
70051;SHT30;57391;51.306;22.680;2022-07-22T03:34:53;18.98;74.72
70051;SHT30;57391;51.306;22.680;2022-07-22T03:37:21;19.03;74.70
70051;SHT30;57391;51.306;22.680;2022-07-22T03:39:48;19.08;74.66
70051;SHT30;57391;51.306;22.680;2022-07-22T03:42:15;19.14;74.54
70051;SHT30;57391;51.306;22.680;2022-07-22T03:44:46;19.22;74.36
70051;SHT30;57391;51.306;22.680;2022-07-22T03:47:19;19.29;74.21
70051;SHT30;57391;51.306;22.680;2022-07-22T03:49:49;19.38;74.09
70051;SHT30;57391;51.306;22.680;2022-07-22T03:52:21;19.47;74.00
70051;SHT30;57391;51.306;22.680;2022-07-22T03:54:48;19.57;73.93
70051;SHT30;57391;51.306;22.680;2022-07-22T03:57:15;19.85;73.63
70051;SHT30;57391;51.306;22.680;2022-07-22T03:59:42;20.69;72.27
70051;SHT30;57391;51.306;22.680;2022-07-22T04:02:09;21.65;70.31
70051;SHT30;57391;51.306;22.680;2022-07-22T04:04:36;22.58;68.25
70051;SHT30;57391;51.306;22.680;2022-07-22T04:07:03;23.57;65.99
70051;SHT30;57391;51.306;22.680;2022-07-22T04:09:34;24.54;63.54
70051;SHT30;57391;51.306;22.680;2022-07-22T04:12:02;25.42;61.17
70051;SHT30;57391;51.306;22.680;2022-07-22T04:14:31;26.30;59.22
70051;SHT30;57391;51.306;22.680;2022-07-22T04:16:58;27.17;56.91
70051;SHT30;57391;51.306;22.680;2022-07-22T04:19:25;27.99;54.79
70051;SHT30;57391;51.306;22.680;2022-07-22T04:21:53;28.71;52.60
70051;SHT30;57391;51.306;22.680;2022-07-22T04:24:23;29.36;50.55
70051;SHT30;57391;51.306;22.680;2022-07-22T04:26:49;29.93;48.96
70051;SHT30;57391;51.306;22.680;2022-07-22T04:29:16;30.49;47.66
70051;SHT30;57391;51.306;22.680;2022-07-22T04:31:43;31.01;46.22
70051;SHT30;57391;51.306;22.680;2022-07-22T04:34:14;31.56;45.24
70051;SHT30;57391;51.306;22.680;2022-07-22T04:36:41;32.13;44.30
70051;SHT30;57391;51.306;22.680;2022-07-22T04:39:08;32.69;43.18
70051;SHT30;57391;51.306;22.680;2022-07-22T04:41:36;33.25;41.99
70051;SHT30;57391;51.306;22.680;2022-07-22T04:44:03;33.78;40.98
70051;SHT30;57391;51.306;22.680;2022-07-22T04:46:32;34.29;40.04
70051;SHT30;57391;51.306;22.680;2022-07-22T04:48:59;34.68;39.08
70051;SHT30;57391;51.306;22.680;2022-07-22T04:51:26;34.94;38.15
70051;SHT30;57391;51.306;22.680;2022-07-22T04:53:59;34.80;38.29
70051;SHT30;57391;51.306;22.680;2022-07-22T04:56:26;34.11;38.90
70051;SHT30;57391;51.306;22.680;2022-07-22T04:58:54;33.44;39.54
70051;SHT30;57391;51.306;22.680;2022-07-22T05:01:22;32.91;40.08
70051;SHT30;57391;51.306;22.680;2022-07-22T05:03:49;32.65;40.49
70051;SHT30;57391;51.306;22.680;2022-07-22T05:06:18;33.03;40.16
70051;SHT30;57391;51.306;22.680;2022-07-22T05:08:45;33.71;39.13
70051;SHT30;57391;51.306;22.680;2022-07-22T05:11:12;33.95;38.76
70051;SHT30;57391;51.306;22.680;2022-07-22T05:13:39;33.56;38.71
70051;SHT30;57391;51.306;22.680;2022-07-22T05:16:07;33.02;39.43
70051;SHT30;57391;51.306;22.680;2022-07-22T05:18:35;32.44;40.15
70051;SHT30;57391;51.306;22.680;2022-07-22T05:21:03;32.08;40.83
70051;SHT30;57391;51.306;22.680;2022-07-22T05:23:31;32.10;40.89
70051;SHT30;57391;51.306;22.680;2022-07-22T05:25:58;32.73;39.89
70051;SHT30;57391;51.306;22.680;2022-07-22T05:28:25;33.34;39.10
70051;SHT30;57391;51.306;22.680;2022-07-22T05:30:52;33.91;38.36
70051;SHT30;57391;51.306;22.680;2022-07-22T05:33:19;34.26;37.95
70051;SHT30;57391;51.306;22.680;2022-07-22T05:36:05;33.93;38.38
70051;SHT30;57391;51.306;22.680;2022-07-22T05:38:37;33.49;39.05
70051;SHT30;57391;51.306;22.680;2022-07-22T05:41:05;33.12;39.69
70051;SHT30;57391;51.306;22.680;2022-07-22T05:43:32;32.88;40.16
70051;SHT30;57391;51.306;22.680;2022-07-22T05:45:59;32.82;40.18
70051;SHT30;57391;51.306;22.680;2022-07-22T05:48:26;33.23;39.68
70051;SHT30;57391;51.306;22.680;2022-07-22T05:50:53;33.99;38.67
70051;SHT30;57391;51.306;22.680;2022-07-22T05:53:20;34.69;37.67
70051;SHT30;57391;51.306;22.680;2022-07-22T05:55:47;35.31;36.93
70051;SHT30;57391;51.306;22.680;2022-07-22T05:58:14;35.92;35.67
70051;SHT30;57391;51.306;22.680;2022-07-22T06:00:42;36.27;35.10
70051;SHT30;57391;51.306;22.680;2022-07-22T06:03:09;36.30;34.56
70051;SHT30;57391;51.306;22.680;2022-07-22T06:05:36;35.86;34.72
70051;SHT30;57391;51.306;22.680;2022-07-22T06:08:03;35.42;35.42
70051;SHT30;57391;51.306;22.680;2022-07-22T06:10:37;35.12;36.15
70051;SHT30;57391;51.306;22.680;2022-07-22T06:13:04;34.84;35.98
70051;SHT30;57391;51.306;22.680;2022-07-22T06:15:31;34.67;36.00
70051;SHT30;57391;51.306;22.680;2022-07-22T06:17:58;34.78;35.73
70051;SHT30;57391;51.306;22.680;2022-07-22T06:20:25;35.20;34.97
70051;SHT30;57391;51.306;22.680;2022-07-22T06:22:53;35.56;34.61
70051;SHT30;57391;51.306;22.680;2022-07-22T06:25:20;35.93;34.32
70051;SHT30;57391;51.306;22.680;2022-07-22T06:27:48;36.30;33.90
70051;SHT30;57391;51.306;22.680;2022-07-22T06:30:15;36.66;33.22
70051;SHT30;57391;51.306;22.680;2022-07-22T06:32:42;36.93;32.61
70051;SHT30;57391;51.306;22.680;2022-07-22T06:35:09;37.26;32.36
70051;SHT30;57391;51.306;22.680;2022-07-22T06:37:37;37.54;32.18
70051;SHT30;57391;51.306;22.680;2022-07-22T06:40:04;37.77;32.05
70051;SHT30;57391;51.306;22.680;2022-07-22T06:42:48;37.85;31.58
70051;SHT30;57391;51.306;22.680;2022-07-22T06:45:36;37.56;31.70
70051;SHT30;57391;51.306;22.680;2022-07-22T06:48:13;37.10;31.51
70051;SHT30;57391;51.306;22.680;2022-07-22T06:50:41;36.74;31.82
70051;SHT30;57391;51.306;22.680;2022-07-22T06:53:12;36.40;32.56
70051;SHT30;57391;51.306;22.680;2022-07-22T06:55:39;36.06;33.29
70051;SHT30;57391;51.306;22.680;2022-07-22T06:58:09;35.92;33.57
70051;SHT30;57391;51.306;22.680;2022-07-22T07:00:36;35.95;33.44
70051;SHT30;57391;51.306;22.680;2022-07-22T07:03:22;36.03;33.22
70051;SHT30;57391;51.306;22.680;2022-07-22T07:05:52;36.20;32.39
70051;SHT30;57391;51.306;22.680;2022-07-22T07:08:20;36.33;32.06
70051;SHT30;57391;51.306;22.680;2022-07-22T07:10:47;36.55;32.17
70051;SHT30;57391;51.306;22.680;2022-07-22T07:13:15;36.82;32.00
70051;SHT30;57391;51.306;22.680;2022-07-22T07:15:43;37.02;31.27
70051;SHT30;57391;51.306;22.680;2022-07-22T07:18:10;37.23;31.53
70051;SHT30;57391;51.306;22.680;2022-07-22T07:20:38;37.51;30.87
70051;SHT30;57391;51.306;22.680;2022-07-22T07:23:07;37.70;30.31
70051;SHT30;57391;51.306;22.680;2022-07-22T07:25:38;37.85;29.14
70051;SHT30;57391;51.306;22.680;2022-07-22T07:28:05;37.94;29.25
70051;SHT30;57391;51.306;22.680;2022-07-22T07:30:51;37.95;28.74
70051;SHT30;57391;51.306;22.680;2022-07-22T07:33:18;37.99;29.67
70051;SHT30;57391;51.306;22.680;2022-07-22T07:35:46;38.15;29.77
70051;SHT30;57391;51.306;22.680;2022-07-22T07:38:13;38.31;30.06
70051;SHT30;57391;51.306;22.680;2022-07-22T07:40:41;38.48;30.73
70051;SHT30;57391;51.306;22.680;2022-07-22T07:43:09;38.53;29.22
70051;SHT30;57391;51.306;22.680;2022-07-22T07:45:36;38.28;29.83
70051;SHT30;57391;51.306;22.680;2022-07-22T07:48:04;37.99;30.25
70051;SHT30;57391;51.306;22.680;2022-07-22T07:50:31;37.72;30.81
70051;SHT30;57391;51.306;22.680;2022-07-22T07:52:59;37.52;30.98
70051;SHT30;57391;51.306;22.680;2022-07-22T07:55:26;37.37;30.66
70051;SHT30;57391;51.306;22.680;2022-07-22T07:57:53;37.29;31.96
70051;SHT30;57391;51.306;22.680;2022-07-22T08:00:22;37.28;31.36
70051;SHT30;57391;51.306;22.680;2022-07-22T08:02:54;37.30;30.76
70051;SHT30;57391;51.306;22.680;2022-07-22T08:05:25;37.36;30.42
70051;SHT30;57391;51.306;22.680;2022-07-22T08:07:54;37.51;30.84
70051;SHT30;57391;51.306;22.680;2022-07-22T08:10:21;37.69;30.83
70051;SHT30;57391;51.306;22.680;2022-07-22T08:13:14;37.83;30.19
70051;SHT30;57391;51.306;22.680;2022-07-22T08:15:58;37.95;29.71
70051;SHT30;57391;51.306;22.680;2022-07-22T08:18:26;37.96;28.86
70051;SHT30;57391;51.306;22.680;2022-07-22T08:20:55;37.92;29.86
70051;SHT30;57391;51.306;22.680;2022-07-22T08:23:34;37.90;30.09
70051;SHT30;57391;51.306;22.680;2022-07-22T08:26:02;37.93;30.45
70051;SHT30;57391;51.306;22.680;2022-07-22T08:28:29;37.91;31.25
70051;SHT30;57391;51.306;22.680;2022-07-22T08:30:56;37.82;30.98
70051;SHT30;57391;51.306;22.680;2022-07-22T08:33:23;37.76;31.34
70051;SHT30;57391;51.306;22.680;2022-07-22T08:35:50;37.74;31.08
70051;SHT30;57391;51.306;22.680;2022-07-22T08:38:17;37.81;31.16
70051;SHT30;57391;51.306;22.680;2022-07-22T08:40:45;37.83;30.57
70051;SHT30;57391;51.306;22.680;2022-07-22T08:43:13;37.75;29.85
70051;SHT30;57391;51.306;22.680;2022-07-22T08:45:40;37.73;29.82
70051;SHT30;57391;51.306;22.680;2022-07-22T08:48:07;37.68;29.21
70051;SHT30;57391;51.306;22.680;2022-07-22T08:50:40;37.53;30.48
70051;SHT30;57391;51.306;22.680;2022-07-22T08:53:13;37.38;31.69
70051;SHT30;57391;51.306;22.680;2022-07-22T08:55:45;37.32;31.34
70051;SHT30;57391;51.306;22.680;2022-07-22T08:58:16;37.32;30.77
70051;SHT30;57391;51.306;22.680;2022-07-22T09:00:43;37.29;29.04
70051;SHT30;57391;51.306;22.680;2022-07-22T09:03:18;37.34;29.19
70051;SHT30;57391;51.306;22.680;2022-07-22T09:05:49;37.36;29.59
70051;SHT30;57391;51.306;22.680;2022-07-22T09:08:18;37.35;28.62
70051;SHT30;57391;51.306;22.680;2022-07-22T09:11:19;37.35;29.76
70051;SHT30;57391;51.306;22.680;2022-07-22T09:14:09;37.38;30.29
70051;SHT30;57391;51.306;22.680;2022-07-22T09:16:47;37.37;28.80
70051;SHT30;57391;51.306;22.680;2022-07-22T09:19:31;37.46;28.12
70051;SHT30;57391;51.306;22.680;2022-07-22T09:28:19;37.82;28.63
70051;SHT30;57391;51.306;22.680;2022-07-22T09:31:08;37.94;29.31
70051;SHT30;57391;51.306;22.680;2022-07-22T09:34:28;38.03;29.51
70051;SHT30;57391;51.306;22.680;2022-07-22T09:37:20;38.06;28.81
70051;SHT30;57391;51.306;22.680;2022-07-22T09:39:48;38.13;28.63
70051;SHT30;57391;51.306;22.680;2022-07-22T09:42:16;38.21;29.53
70051;SHT30;57391;51.306;22.680;2022-07-22T09:44:43;38.35;28.90
70051;SHT30;57391;51.306;22.680;2022-07-22T09:47:28;38.48;28.40
70051;SHT30;57391;51.306;22.680;2022-07-22T09:53:20;38.68;28.16
70051;SHT30;57391;51.306;22.680;2022-07-22T09:56:03;38.66;27.33
70051;SHT30;57391;51.306;22.680;2022-07-22T09:58:34;38.73;27.62
70051;SHT30;57391;51.306;22.680;2022-07-22T10:01:03;38.83;27.05
70051;SHT30;57391;51.306;22.680;2022-07-22T10:03:33;38.85;26.88
70051;SHT30;57391;51.306;22.680;2022-07-22T10:06:04;38.82;27.27
70051;SHT30;57391;51.306;22.680;2022-07-22T10:08:32;38.74;27.18
70051;SHT30;57391;51.306;22.680;2022-07-22T10:11:02;38.67;28.08
70051;SHT30;57391;51.306;22.680;2022-07-22T10:13:32;38.62;27.11
70051;SHT30;57391;51.306;22.680;2022-07-22T10:16:02;38.57;27.42
70051;SHT30;57391;51.306;22.680;2022-07-22T10:18:31;38.60;27.80
70051;SHT30;57391;51.306;22.680;2022-07-22T10:21:08;38.65;27.62
70051;SHT30;57391;51.306;22.680;2022-07-22T10:24:06;38.62;27.83
70051;SHT30;57391;51.306;22.680;2022-07-22T10:34:44;38.27;27.72
70051;SHT30;57391;51.306;22.680;2022-07-22T10:48:14;38.52;27.77
70051;SHT30;57391;51.306;22.680;2022-07-22T10:50:52;38.53;28.84
70051;SHT30;57391;51.306;22.680;2022-07-22T10:56:23;38.46;29.33
70051;SHT30;57391;51.306;22.680;2022-07-22T11:01:42;38.28;28.29
70051;SHT30;57391;51.306;22.680;2022-07-22T11:04:16;38.17;27.94
70051;SHT30;57391;51.306;22.680;2022-07-22T11:06:50;38.10;26.72
70051;SHT30;57391;51.306;22.680;2022-07-22T11:09:23;37.87;26.65
70051;SHT30;57391;51.306;22.680;2022-07-22T11:11:59;37.80;27.22
70051;SHT30;57391;51.306;22.680;2022-07-22T11:17:14;37.83;28.35
70051;SHT30;57391;51.306;22.680;2022-07-22T11:19:41;37.85;28.33
70051;SHT30;57391;51.306;22.680;2022-07-22T11:22:09;37.94;29.35
70051;SHT30;57391;51.306;22.680;2022-07-22T11:24:40;37.93;29.02
70051;SHT30;57391;51.306;22.680;2022-07-22T11:27:15;37.93;28.97
70051;SHT30;57391;51.306;22.680;2022-07-22T11:29:49;37.96;27.56
70051;SHT30;57391;51.306;22.680;2022-07-22T11:32:22;37.98;27.29
70051;SHT30;57391;51.306;22.680;2022-07-22T11:34:52;37.92;27.16
70051;SHT30;57391;51.306;22.680;2022-07-22T11:37:20;37.84;28.42
70051;SHT30;57391;51.306;22.680;2022-07-22T11:40:06;37.76;28.31
70051;SHT30;57391;51.306;22.680;2022-07-22T11:42:35;37.75;28.64
70051;SHT30;57391;51.306;22.680;2022-07-22T11:45:03;37.75;27.44
70051;SHT30;57391;51.306;22.680;2022-07-22T11:47:31;37.72;26.49
70051;SHT30;57391;51.306;22.680;2022-07-22T11:49:58;37.70;27.18
70051;SHT30;57391;51.306;22.680;2022-07-22T11:52:25;37.69;26.80
70051;SHT30;57391;51.306;22.680;2022-07-22T11:54:52;37.69;26.74
70051;SHT30;57391;51.306;22.680;2022-07-22T11:57:19;37.65;26.40
70051;SHT30;57391;51.306;22.680;2022-07-22T11:59:46;37.62;26.94
70051;SHT30;57391;51.306;22.680;2022-07-22T12:02:13;37.59;27.94
70051;SHT30;57391;51.306;22.680;2022-07-22T12:04:42;37.58;27.84
70051;SHT30;57391;51.306;22.680;2022-07-22T12:07:12;37.51;27.52
70051;SHT30;57391;51.306;22.680;2022-07-22T12:09:41;37.47;26.85
70051;SHT30;57391;51.306;22.680;2022-07-22T12:12:09;37.43;26.57
70051;SHT30;57391;51.306;22.680;2022-07-22T12:14:44;37.40;26.56
70051;SHT30;57391;51.306;22.680;2022-07-22T12:17:14;37.39;26.97
70051;SHT30;57391;51.306;22.680;2022-07-22T12:19:42;37.34;27.31
70051;SHT30;57391;51.306;22.680;2022-07-22T12:22:10;37.29;27.84
70051;SHT30;57391;51.306;22.680;2022-07-22T12:24:46;37.22;28.63
70051;SHT30;57391;51.306;22.680;2022-07-22T12:27:27;37.19;28.71
70051;SHT30;57391;51.306;22.680;2022-07-22T12:29:55;37.16;29.57
70051;SHT30;57391;51.306;22.680;2022-07-22T12:34:57;37.15;29.49
70051;SHT30;57391;51.306;22.680;2022-07-22T12:40:06;37.18;29.14
70051;SHT30;57391;51.306;22.680;2022-07-22T12:43:05;37.15;28.96
70051;SHT30;57391;51.306;22.680;2022-07-22T12:45:35;37.13;28.12
70051;SHT30;57391;51.306;22.680;2022-07-22T12:48:07;37.11;28.45
70051;SHT30;57391;51.306;22.680;2022-07-22T12:50:37;37.11;29.11
70051;SHT30;57391;51.306;22.680;2022-07-22T12:53:10;37.10;29.75
70051;SHT30;57391;51.306;22.680;2022-07-22T12:55:44;37.05;29.64
70051;SHT30;57391;51.306;22.680;2022-07-22T12:58:23;37.01;29.29
70051;SHT30;57391;51.306;22.680;2022-07-22T13:00:55;36.96;29.68
70051;SHT30;57391;51.306;22.680;2022-07-22T13:03:25;36.94;28.97
70051;SHT30;57391;51.306;22.680;2022-07-22T13:05:54;36.94;29.62
70051;SHT30;57391;51.306;22.680;2022-07-22T13:08:28;36.95;28.99
70051;SHT30;57391;51.306;22.680;2022-07-22T13:10:56;36.97;29.38
70051;SHT30;57391;51.306;22.680;2022-07-22T13:13:24;36.92;29.23
70051;SHT30;57391;51.306;22.680;2022-07-22T13:15:51;36.85;28.52
70051;SHT30;57391;51.306;22.680;2022-07-22T13:18:18;36.75;28.16
70051;SHT30;57391;51.306;22.680;2022-07-22T13:20:45;36.70;28.96
70051;SHT30;57391;51.306;22.680;2022-07-22T13:23:13;36.67;28.75
70051;SHT30;57391;51.306;22.680;2022-07-22T13:25:40;36.65;29.79
70051;SHT30;57391;51.306;22.680;2022-07-22T13:28:07;36.59;29.81
70051;SHT30;57391;51.306;22.680;2022-07-22T13:30:35;36.58;29.01
70051;SHT30;57391;51.306;22.680;2022-07-22T13:33:03;36.60;29.87
70051;SHT30;57391;51.306;22.680;2022-07-22T13:35:30;36.58;30.57
70051;SHT30;57391;51.306;22.680;2022-07-22T13:37:57;36.52;30.52
70051;SHT30;57391;51.306;22.680;2022-07-22T13:40:25;36.43;30.27
70051;SHT30;57391;51.306;22.680;2022-07-22T13:42:53;36.35;28.59
70051;SHT30;57391;51.306;22.680;2022-07-22T13:45:20;36.36;29.32
70051;SHT30;57391;51.306;22.680;2022-07-22T13:47:47;36.35;30.04
70051;SHT30;57391;51.306;22.680;2022-07-22T13:50:14;36.33;29.77
70051;SHT30;57391;51.306;22.680;2022-07-22T13:52:42;36.32;28.60
70051;SHT30;57391;51.306;22.680;2022-07-22T13:55:12;36.30;28.46
70051;SHT30;57391;51.306;22.680;2022-07-22T13:57:40;36.29;28.38
70051;SHT30;57391;51.306;22.680;2022-07-22T14:00:09;36.21;29.36
70051;SHT30;57391;51.306;22.680;2022-07-22T14:02:37;36.15;29.09
70051;SHT30;57391;51.306;22.680;2022-07-22T14:05:05;36.08;29.26
70051;SHT30;57391;51.306;22.680;2022-07-22T14:07:32;36.01;29.37
70051;SHT30;57391;51.306;22.680;2022-07-22T14:09:59;35.96;30.21
70051;SHT30;57391;51.306;22.680;2022-07-22T14:12:27;35.93;29.61
70051;SHT30;57391;51.306;22.680;2022-07-22T14:14:55;35.88;29.16
70051;SHT30;57391;51.306;22.680;2022-07-22T14:17:22;35.83;28.75
70051;SHT30;57391;51.306;22.680;2022-07-22T14:19:49;35.78;29.59
70051;SHT30;57391;51.306;22.680;2022-07-22T14:22:16;35.73;29.52
70051;SHT30;57391;51.306;22.680;2022-07-22T14:24:43;35.68;29.98
70051;SHT30;57391;51.306;22.680;2022-07-22T14:27:11;35.60;29.43
70051;SHT30;57391;51.306;22.680;2022-07-22T14:29:38;35.55;28.37
70051;SHT30;57391;51.306;22.680;2022-07-22T14:32:06;35.55;29.88
70051;SHT30;57391;51.306;22.680;2022-07-22T14:34:33;35.56;28.83
70051;SHT30;57391;51.306;22.680;2022-07-22T14:37:00;35.54;30.11
70051;SHT30;57391;51.306;22.680;2022-07-22T14:39:27;35.52;28.96
70051;SHT30;57391;51.306;22.680;2022-07-22T14:41:54;35.48;29.29
70051;SHT30;57391;51.306;22.680;2022-07-22T14:44:21;35.44;28.95
70051;SHT30;57391;51.306;22.680;2022-07-22T14:46:48;35.44;28.66
70051;SHT30;57391;51.306;22.680;2022-07-22T14:49:15;35.45;28.78
70051;SHT30;57391;51.306;22.680;2022-07-22T14:51:43;35.45;29.58
70051;SHT30;57391;51.306;22.680;2022-07-22T14:54:10;35.43;29.35
70051;SHT30;57391;51.306;22.680;2022-07-22T14:56:38;35.40;29.48
70051;SHT30;57391;51.306;22.680;2022-07-22T14:59:06;35.36;28.99
70051;SHT30;57391;51.306;22.680;2022-07-22T15:01:34;35.29;27.29
70051;SHT30;57391;51.306;22.680;2022-07-22T15:04:01;35.23;27.80
70051;SHT30;57391;51.306;22.680;2022-07-22T15:06:29;35.18;27.82
70051;SHT30;57391;51.306;22.680;2022-07-22T15:08:56;35.18;27.71
70051;SHT30;57391;51.306;22.680;2022-07-22T15:11:23;35.16;27.88
70051;SHT30;57391;51.306;22.680;2022-07-22T15:13:50;35.13;28.66
70051;SHT30;57391;51.306;22.680;2022-07-22T15:16:17;35.07;28.94
70051;SHT30;57391;51.306;22.680;2022-07-22T15:18:44;35.04;28.19
70051;SHT30;57391;51.306;22.680;2022-07-22T15:21:12;34.99;28.45
70051;SHT30;57391;51.306;22.680;2022-07-22T15:23:39;34.92;28.21
70051;SHT30;57391;51.306;22.680;2022-07-22T15:26:06;34.89;27.85
70051;SHT30;57391;51.306;22.680;2022-07-22T15:28:33;34.87;28.87
70051;SHT30;57391;51.306;22.680;2022-07-22T15:31:01;34.82;28.32
70051;SHT30;57391;51.306;22.680;2022-07-22T15:33:29;34.78;28.35
70051;SHT30;57391;51.306;22.680;2022-07-22T15:35:57;34.74;28.63
70051;SHT30;57391;51.306;22.680;2022-07-22T15:38:27;34.69;27.38
70051;SHT30;57391;51.306;22.680;2022-07-22T15:40:54;34.66;27.70
70051;SHT30;57391;51.306;22.680;2022-07-22T15:43:21;34.64;27.51
70051;SHT30;57391;51.306;22.680;2022-07-22T15:45:49;34.62;27.49
70051;SHT30;57391;51.306;22.680;2022-07-22T15:48:16;34.60;27.86
70051;SHT30;57391;51.306;22.680;2022-07-22T15:50:43;34.56;27.91
70051;SHT30;57391;51.306;22.680;2022-07-22T15:53:10;34.55;28.38
70051;SHT30;57391;51.306;22.680;2022-07-22T15:55:37;34.50;28.10
70051;SHT30;57391;51.306;22.680;2022-07-22T15:58:05;34.46;28.92
70051;SHT30;57391;51.306;22.680;2022-07-22T16:00:51;34.34;31.08
70051;SHT30;57391;51.306;22.680;2022-07-22T16:03:18;34.22;31.24
70051;SHT30;57391;51.306;22.680;2022-07-22T16:05:45;34.10;31.05
70051;SHT30;57391;51.306;22.680;2022-07-22T16:08:12;34.03;30.93
70051;SHT30;57391;51.306;22.680;2022-07-22T16:10:40;33.95;31.66
70051;SHT30;57391;51.306;22.680;2022-07-22T16:13:07;33.90;30.98
70051;SHT30;57391;51.306;22.680;2022-07-22T16:15:34;33.89;30.68